createdAt,value
2022-12-23T00:00:53.602Z,999.73
2022-12-23T00:01:53.507Z,999.70
2022-12-23T00:02:56.180Z,999.69
2022-12-23T00:03:54.501Z,999.66
2022-12-23T00:04:53.160Z,999.64
2022-12-23T00:05:53.122Z,999.63
2022-12-23T00:06:54.091Z,999.62
2022-12-23T00:07:53.184Z,999.61
2022-12-23T00:08:53.096Z,999.61
2022-12-23T00:09:53.348Z,999.62
2022-12-23T00:10:53.098Z,999.60
2022-12-23T00:11:53.472Z,999.57
2022-12-23T00:12:53.039Z,999.56
2022-12-23T00:13:53.032Z,999.56
2022-12-23T00:14:53.029Z,999.56
2022-12-23T00:15:53.011Z,999.54
2022-12-23T00:16:53.114Z,999.54
2022-12-23T00:17:52.992Z,999.55
2022-12-23T00:18:53.098Z,999.54
2022-12-23T00:19:52.964Z,999.53
2022-12-23T00:20:53.011Z,999.53
2022-12-23T00:21:52.989Z,999.53
2022-12-23T00:22:52.944Z,999.52
2022-12-23T00:23:52.935Z,999.51
2022-12-23T00:24:52.952Z,999.49
2022-12-23T00:25:52.906Z,999.47
2022-12-23T00:26:52.914Z,999.44
2022-12-23T00:27:52.905Z,999.40
2022-12-23T00:28:52.928Z,999.36
2022-12-23T00:29:52.870Z,999.35
2022-12-23T00:30:52.860Z,999.33
2022-12-23T00:31:52.939Z,999.32
2022-12-23T00:32:52.853Z,999.30
2022-12-23T00:33:52.833Z,999.28
2022-12-23T00:34:52.819Z,999.26
2022-12-23T00:35:52.862Z,999.25
2022-12-23T00:36:52.862Z,999.25
2022-12-23T00:37:52.799Z,999.27
2022-12-23T00:38:52.783Z,999.29
2022-12-23T00:39:55.042Z,999.30
2022-12-23T00:40:52.751Z,999.29
2022-12-23T00:41:52.753Z,999.27
2022-12-23T00:42:52.742Z,999.24
2022-12-23T00:43:52.756Z,999.24
2022-12-23T00:44:52.713Z,999.24
2022-12-23T00:45:52.801Z,999.23
2022-12-23T00:46:52.775Z,999.23
2022-12-23T00:47:52.703Z,999.23
2022-12-23T00:48:52.669Z,999.23
2022-12-23T00:49:52.662Z,999.22
2022-12-23T00:50:52.683Z,999.20
2022-12-23T00:51:53.442Z,999.18
2022-12-23T00:52:52.646Z,999.14
2022-12-23T00:53:52.647Z,999.12
2022-12-23T00:54:52.649Z,999.15
2022-12-23T00:55:52.649Z,999.14
2022-12-23T00:56:52.750Z,999.12
2022-12-23T00:57:52.594Z,999.12
2022-12-23T00:58:52.600Z,999.12
2022-12-23T00:59:52.597Z,999.12
2022-12-23T01:00:52.602Z,999.13
2022-12-23T01:01:52.717Z,999.13
2022-12-23T01:02:52.654Z,999.11
2022-12-23T01:03:52.526Z,999.08
2022-12-23T01:04:52.611Z,999.05
2022-12-23T01:05:52.500Z,999.01
2022-12-23T01:06:52.536Z,998.99
2022-12-23T01:07:52.479Z,999.03
2022-12-23T01:08:52.489Z,999.04
2022-12-23T01:09:52.510Z,999.04
2022-12-23T01:10:52.454Z,999.05
2022-12-23T01:11:52.464Z,999.03
2022-12-23T01:12:52.424Z,999.01
2022-12-23T01:13:52.630Z,999.01
2022-12-23T01:14:52.406Z,999.04
2022-12-23T01:15:52.493Z,999.04
2022-12-23T01:16:52.625Z,999.04
2022-12-23T01:17:52.374Z,999.05
2022-12-23T01:18:52.407Z,999.05
2022-12-23T01:19:52.405Z,999.06
2022-12-23T01:20:52.348Z,999.06
2022-12-23T01:21:52.342Z,999.06
2022-12-23T01:22:52.335Z,999.05
2022-12-23T01:23:52.345Z,999.05
2022-12-23T01:24:52.303Z,999.05
2022-12-23T01:25:52.308Z,999.07
2022-12-23T01:26:52.291Z,999.10
2022-12-23T01:27:52.275Z,999.12
2022-12-23T01:28:52.256Z,999.13
2022-12-23T01:29:52.309Z,999.11
2022-12-23T01:30:52.272Z,999.11
2022-12-23T01:31:52.346Z,999.10
2022-12-23T01:32:52.278Z,999.10
2022-12-23T01:33:52.215Z,999.08
2022-12-23T01:34:52.275Z,999.05
2022-12-23T01:35:52.200Z,999.01
2022-12-23T01:36:52.256Z,998.98
2022-12-23T01:37:52.175Z,998.96
2022-12-23T01:38:52.202Z,998.94
2022-12-23T01:39:52.154Z,998.94
2022-12-23T01:40:52.261Z,998.95
2022-12-23T01:41:52.153Z,998.94
2022-12-23T01:42:52.215Z,998.92
2022-12-23T01:43:52.240Z,998.90
2022-12-23T01:44:52.150Z,998.90
2022-12-23T01:45:52.166Z,998.89
2022-12-23T01:46:52.122Z,998.88
2022-12-23T01:47:52.061Z,998.87
2022-12-23T01:48:52.060Z,998.87
2022-12-23T01:49:52.098Z,998.86
2022-12-23T01:50:52.032Z,998.86
2022-12-23T01:51:52.102Z,998.84
2022-12-23T01:52:52.072Z,998.81
2022-12-23T01:53:52.020Z,998.80
2022-12-23T01:54:52.094Z,998.80
2022-12-23T01:55:52.025Z,998.80
2022-12-23T01:56:51.995Z,998.81
2022-12-23T01:57:51.986Z,998.84
2022-12-23T01:58:51.974Z,998.84
2022-12-23T01:59:51.962Z,998.82
2022-12-23T02:00:52.006Z,998.80
2022-12-23T02:01:51.997Z,998.78
2022-12-23T02:02:51.987Z,998.78
2022-12-23T02:03:51.911Z,998.77
2022-12-23T02:04:51.905Z,998.75
2022-12-23T02:05:51.904Z,998.74
2022-12-23T02:06:51.893Z,998.72
2022-12-23T02:07:51.865Z,998.71
2022-12-23T02:08:51.881Z,998.70
2022-12-23T02:09:51.859Z,998.69
2022-12-23T02:10:51.823Z,998.69
2022-12-23T02:11:51.839Z,998.70
2022-12-23T02:12:51.807Z,998.69
2022-12-23T02:13:51.807Z,998.66
2022-12-23T02:14:51.784Z,998.66
2022-12-23T02:15:51.781Z,998.66
2022-12-23T02:16:51.821Z,998.67
2022-12-23T02:17:51.754Z,998.64
2022-12-23T02:18:51.777Z,998.63
2022-12-23T02:19:51.808Z,998.62
2022-12-23T02:20:51.739Z,998.61
2022-12-23T02:21:52.472Z,998.60
2022-12-23T02:22:51.706Z,998.59
2022-12-23T02:23:51.752Z,998.57
2022-12-23T02:24:51.725Z,998.56
2022-12-23T02:25:51.705Z,998.55
2022-12-23T02:26:52.087Z,998.55
2022-12-23T02:27:52.569Z,998.54
2022-12-23T02:28:51.709Z,998.53
2022-12-23T02:29:51.694Z,998.51
2022-12-23T02:30:51.716Z,998.48
2022-12-23T02:31:51.661Z,998.47
2022-12-23T02:32:51.613Z,998.46
2022-12-23T02:33:51.599Z,998.45
2022-12-23T02:34:51.597Z,998.44
2022-12-23T02:35:51.616Z,998.44
2022-12-23T02:36:51.585Z,998.43
2022-12-23T02:37:51.585Z,998.42
2022-12-23T02:38:51.577Z,998.41
2022-12-23T02:39:51.622Z,998.39
2022-12-23T02:40:51.562Z,998.39
2022-12-23T02:41:51.529Z,998.38
2022-12-23T02:42:51.503Z,998.35
2022-12-23T02:43:51.493Z,998.34
2022-12-23T02:44:51.551Z,998.33
2022-12-23T02:45:51.553Z,998.33
2022-12-23T02:46:51.474Z,998.32
2022-12-23T02:47:51.466Z,998.32
2022-12-23T02:48:51.466Z,998.31
2022-12-23T02:49:51.452Z,998.30
2022-12-23T02:50:51.431Z,998.28
2022-12-23T02:51:51.416Z,998.26
2022-12-23T02:52:51.423Z,998.25
2022-12-23T02:53:51.386Z,998.23
2022-12-23T02:54:51.416Z,998.20
2022-12-23T02:55:51.372Z,998.18
2022-12-23T02:56:51.348Z,998.17
2022-12-23T02:57:51.377Z,998.15
2022-12-23T02:58:51.371Z,998.13
2022-12-23T02:59:51.359Z,998.10
2022-12-23T03:00:51.323Z,998.08
2022-12-23T03:01:51.358Z,998.08
2022-12-23T03:02:51.529Z,998.07
2022-12-23T03:03:51.365Z,998.06
2022-12-23T03:04:51.352Z,998.06
2022-12-23T03:05:51.292Z,998.06
2022-12-23T03:06:51.304Z,998.05
2022-12-23T03:07:51.978Z,998.05
2022-12-23T03:08:51.240Z,998.05
2022-12-23T03:09:51.254Z,998.05
2022-12-23T03:10:51.216Z,998.04
2022-12-23T03:11:51.237Z,998.02
2022-12-23T03:12:51.211Z,998.01
2022-12-23T03:13:51.187Z,998.00
2022-12-23T03:14:51.174Z,997.99
2022-12-23T03:15:51.185Z,997.97
2022-12-23T03:16:51.142Z,997.94
2022-12-23T03:17:51.215Z,997.91
2022-12-23T03:18:51.142Z,997.89
2022-12-23T03:19:51.123Z,997.91
2022-12-23T03:20:51.123Z,997.92
2022-12-23T03:21:51.122Z,997.93
2022-12-23T03:22:51.103Z,997.93
2022-12-23T03:23:55.517Z,997.93
2022-12-23T03:24:51.094Z,997.93
2022-12-23T03:25:51.068Z,997.94
2022-12-23T03:26:51.046Z,997.93
2022-12-23T03:27:51.069Z,997.87
2022-12-23T03:28:51.030Z,997.85
2022-12-23T03:29:51.958Z,997.88
2022-12-23T03:30:51.052Z,997.91
2022-12-23T03:31:51.046Z,997.93
2022-12-23T03:32:50.990Z,997.94
2022-12-23T03:33:50.998Z,997.94
2022-12-23T03:34:50.988Z,997.93
2022-12-23T03:35:50.967Z,997.94
2022-12-23T03:36:50.944Z,997.95
2022-12-23T03:37:50.957Z,997.96
2022-12-23T03:38:50.924Z,997.96
2022-12-23T03:39:50.936Z,997.97
2022-12-23T03:40:50.949Z,997.97
2022-12-23T03:41:50.937Z,997.96
2022-12-23T03:42:50.944Z,997.94
2022-12-23T03:43:51.400Z,997.92
2022-12-23T03:45:19.226Z,997.89
2022-12-23T03:45:50.853Z,997.86
2022-12-23T03:46:50.877Z,997.84
2022-12-23T03:47:50.844Z,997.82
2022-12-23T03:48:50.818Z,997.81
2022-12-23T03:49:50.824Z,997.81
2022-12-23T03:50:50.812Z,997.81
2022-12-23T03:51:50.798Z,997.79
2022-12-23T03:52:50.797Z,997.77
2022-12-23T03:53:50.825Z,997.76
2022-12-23T03:54:50.769Z,997.75
2022-12-23T03:55:50.770Z,997.74
2022-12-23T03:56:50.761Z,997.72
2022-12-23T03:57:50.757Z,997.73
2022-12-23T03:58:50.722Z,997.72
2022-12-23T03:59:50.731Z,997.70
2022-12-23T04:00:50.716Z,997.69
2022-12-23T04:01:50.783Z,997.68
2022-12-23T04:02:50.837Z,997.69
2022-12-23T04:03:50.743Z,997.66
2022-12-23T04:04:50.682Z,997.64
2022-12-23T04:05:50.658Z,997.64
2022-12-23T04:06:50.651Z,997.65
2022-12-23T04:07:50.652Z,997.66
2022-12-23T04:08:50.605Z,997.65
2022-12-23T04:09:50.635Z,997.64
2022-12-23T04:10:50.631Z,997.66
2022-12-23T04:11:50.604Z,997.66
2022-12-23T04:12:50.595Z,997.65
2022-12-23T04:13:50.575Z,997.63
2022-12-23T04:14:50.555Z,997.62
2022-12-23T04:15:50.618Z,997.65
2022-12-23T04:16:50.576Z,997.64
2022-12-23T04:17:50.541Z,997.63
2022-12-23T04:18:50.521Z,997.62
2022-12-23T04:19:50.518Z,997.61
2022-12-23T04:20:50.499Z,997.59
2022-12-23T04:21:50.509Z,997.57
2022-12-23T04:22:50.602Z,997.56
2022-12-23T04:23:50.496Z,997.56
2022-12-23T04:24:50.455Z,997.54
2022-12-23T04:25:50.463Z,997.55
2022-12-23T04:26:50.441Z,997.55
2022-12-23T04:27:50.523Z,997.55
2022-12-23T04:28:50.419Z,997.54
2022-12-23T04:29:50.446Z,997.51
2022-12-23T04:30:50.431Z,997.50
2022-12-23T04:31:50.402Z,997.50
2022-12-23T04:32:50.392Z,997.51
2022-12-23T04:33:50.369Z,997.52
2022-12-23T04:34:50.355Z,997.53
2022-12-23T04:35:50.367Z,997.54
2022-12-23T04:36:50.330Z,997.53
2022-12-23T04:37:50.333Z,997.54
2022-12-23T04:38:50.339Z,997.55
2022-12-23T04:39:50.314Z,997.54
2022-12-23T04:40:50.291Z,997.54
2022-12-23T04:41:50.299Z,997.53
2022-12-23T04:42:50.294Z,997.52
2022-12-23T04:43:53.077Z,997.51
2022-12-23T04:44:50.243Z,997.48
2022-12-23T04:45:50.269Z,997.47
2022-12-23T04:46:50.327Z,997.48
2022-12-23T04:47:50.233Z,997.48
2022-12-23T04:48:50.206Z,997.50
2022-12-23T04:49:50.242Z,997.50
2022-12-23T04:50:50.203Z,997.50
2022-12-23T04:51:50.295Z,997.50
2022-12-23T04:52:50.185Z,997.48
2022-12-23T04:53:50.160Z,997.47
2022-12-23T04:54:50.188Z,997.48
2022-12-23T04:55:50.209Z,997.47
2022-12-23T04:56:50.124Z,997.46
2022-12-23T04:57:50.135Z,997.46
2022-12-23T04:58:50.111Z,997.46
2022-12-23T04:59:50.121Z,997.45
2022-12-23T05:00:50.192Z,997.45
2022-12-23T05:01:50.347Z,997.46
2022-12-23T05:02:50.237Z,997.48
2022-12-23T05:03:50.051Z,997.49
2022-12-23T05:04:50.030Z,997.48
2022-12-23T05:05:50.066Z,997.47
2022-12-23T05:06:50.059Z,997.47
2022-12-23T05:07:50.026Z,997.46
2022-12-23T05:08:50.015Z,997.46
2022-12-23T05:09:56.764Z,997.42
2022-12-23T05:10:50.703Z,997.45
2022-12-23T05:11:49.983Z,997.45
2022-12-23T05:12:49.977Z,997.45
2022-12-23T05:13:49.969Z,997.45
2022-12-23T05:14:49.934Z,997.44
2022-12-23T05:15:49.980Z,997.45
2022-12-23T05:16:50.045Z,997.45
2022-12-23T05:17:49.932Z,997.44
2022-12-23T05:18:49.899Z,997.41
2022-12-23T05:19:49.891Z,997.41
2022-12-23T05:20:49.904Z,997.43
2022-12-23T05:21:49.883Z,997.45
2022-12-23T05:22:49.860Z,997.47
2022-12-23T05:23:49.852Z,997.49
2022-12-23T05:24:49.851Z,997.50
2022-12-23T05:25:49.822Z,997.52
2022-12-23T05:26:54.237Z,997.51
2022-12-23T05:27:49.885Z,997.51
2022-12-23T05:28:49.826Z,997.51
2022-12-23T05:29:49.794Z,997.52
2022-12-23T05:30:49.763Z,997.51
2022-12-23T05:31:49.920Z,997.49
2022-12-23T05:32:49.769Z,997.48
2022-12-23T05:33:49.794Z,997.49
2022-12-23T05:34:49.735Z,997.49
2022-12-23T05:35:49.722Z,997.48
2022-12-23T05:36:49.716Z,997.45
2022-12-23T05:37:49.731Z,997.46
2022-12-23T05:38:49.692Z,997.44
2022-12-23T05:39:49.682Z,997.42
2022-12-23T05:40:49.710Z,997.40
2022-12-23T05:41:49.652Z,997.44
2022-12-23T05:42:49.661Z,997.44
2022-12-23T05:43:49.638Z,997.45
2022-12-23T05:44:49.640Z,997.46
2022-12-23T05:45:49.672Z,997.48
2022-12-23T05:46:49.619Z,997.49
2022-12-23T05:47:49.635Z,997.49
2022-12-23T05:48:49.601Z,997.49
2022-12-23T05:49:49.594Z,997.52
2022-12-23T05:50:49.578Z,997.52
2022-12-23T05:51:49.554Z,997.52
2022-12-23T05:52:49.563Z,997.54
2022-12-23T05:53:49.541Z,997.52
2022-12-23T05:54:49.546Z,997.52
2022-12-23T05:55:49.536Z,997.52
2022-12-23T05:56:49.528Z,997.53
2022-12-23T05:57:49.528Z,997.54
2022-12-23T05:58:49.491Z,997.53
2022-12-23T05:59:49.481Z,997.52
2022-12-23T06:00:49.469Z,997.50
2022-12-23T06:01:49.547Z,997.50
2022-12-23T06:02:53.810Z,997.46
2022-12-23T06:03:49.642Z,997.46
2022-12-23T06:04:49.441Z,997.47
2022-12-23T06:05:49.410Z,997.51
2022-12-23T06:06:49.407Z,997.52
2022-12-23T06:07:49.455Z,997.54
2022-12-23T06:08:52.069Z,997.57
2022-12-23T06:09:49.382Z,997.58
2022-12-23T06:10:49.384Z,997.59
2022-12-23T06:11:49.407Z,997.58
2022-12-23T06:12:49.384Z,997.59
2022-12-23T06:13:49.323Z,997.60
2022-12-23T06:14:49.355Z,997.61
2022-12-23T06:15:49.312Z,997.63
2022-12-23T06:16:49.444Z,997.63
2022-12-23T06:17:49.383Z,997.63
2022-12-23T06:18:49.294Z,997.62
2022-12-23T06:19:49.279Z,997.61
2022-12-23T06:20:49.259Z,997.62
2022-12-23T06:21:49.277Z,997.64
2022-12-23T06:22:49.295Z,997.66
2022-12-23T06:23:49.231Z,997.68
2022-12-23T06:24:49.219Z,997.70
2022-12-23T06:25:49.208Z,997.70
2022-12-23T06:26:54.920Z,997.71
2022-12-23T06:27:49.199Z,997.72
2022-12-23T06:28:49.183Z,997.74
2022-12-23T06:29:49.174Z,997.76
2022-12-23T06:30:49.148Z,997.78
2022-12-23T06:31:49.175Z,997.81
2022-12-23T06:32:49.186Z,997.83
2022-12-23T06:33:49.142Z,997.85
2022-12-23T06:34:49.135Z,997.86
2022-12-23T06:35:49.100Z,997.86
2022-12-23T06:36:49.100Z,997.86
2022-12-23T06:37:49.080Z,997.86
2022-12-23T06:38:49.126Z,997.87
2022-12-23T06:39:49.062Z,997.89
2022-12-23T06:40:49.055Z,997.91
2022-12-23T06:41:49.042Z,997.93
2022-12-23T06:42:49.036Z,997.93
2022-12-23T06:43:54.101Z,997.94
2022-12-23T06:44:49.014Z,997.95
2022-12-23T06:45:49.022Z,997.97
2022-12-23T06:46:48.939Z,997.99
2022-12-23T06:47:48.982Z,998.00
2022-12-23T06:48:49.029Z,998.01
2022-12-23T06:49:48.963Z,998.03
2022-12-23T06:50:48.921Z,998.05
2022-12-23T06:51:48.921Z,998.08
2022-12-23T06:52:48.936Z,998.10
2022-12-23T06:53:48.874Z,998.11
2022-12-23T06:54:48.857Z,998.11
2022-12-23T06:55:48.860Z,998.13
2022-12-23T06:56:48.872Z,998.14
2022-12-23T06:57:48.834Z,998.16
2022-12-23T06:58:48.831Z,998.19
2022-12-23T06:59:48.813Z,998.20
2022-12-23T07:00:48.845Z,998.18
2022-12-23T07:01:48.865Z,998.17
2022-12-23T07:02:48.824Z,998.19
2022-12-23T07:03:48.782Z,998.18
2022-12-23T07:04:48.766Z,998.17
2022-12-23T07:05:48.741Z,998.17
2022-12-23T07:06:48.776Z,998.17
2022-12-23T07:07:48.715Z,998.19
2022-12-23T07:08:48.747Z,998.19
2022-12-23T07:09:48.696Z,998.20
2022-12-23T07:10:48.709Z,998.21
2022-12-23T07:11:48.683Z,998.23
2022-12-23T07:12:50.949Z,998.25
2022-12-23T07:13:48.656Z,998.28
2022-12-23T07:14:48.667Z,998.30
2022-12-23T07:15:48.635Z,998.31
2022-12-23T07:16:48.688Z,998.33
2022-12-23T07:17:48.630Z,998.37
2022-12-23T07:18:48.643Z,998.38
2022-12-23T07:19:48.610Z,998.38
2022-12-23T07:20:48.584Z,998.36
2022-12-23T07:21:48.585Z,998.35
2022-12-23T07:22:48.598Z,998.34
2022-12-23T07:23:48.577Z,998.32
2022-12-23T07:24:48.543Z,998.33
2022-12-23T07:25:48.547Z,998.34
2022-12-23T07:26:48.518Z,998.37
2022-12-23T07:27:48.527Z,998.38
2022-12-23T07:28:48.551Z,998.37
2022-12-23T07:29:48.496Z,998.38
2022-12-23T07:30:48.482Z,998.39
2022-12-23T07:31:48.546Z,998.40
2022-12-23T07:32:48.537Z,998.43
2022-12-23T07:33:48.480Z,998.42
2022-12-23T07:34:48.453Z,998.43
2022-12-23T07:35:48.444Z,998.43
2022-12-23T07:36:48.446Z,998.45
2022-12-23T07:37:48.412Z,998.46
2022-12-23T07:38:48.410Z,998.48
2022-12-23T07:39:48.404Z,998.48
2022-12-23T07:40:48.384Z,998.48
2022-12-23T07:41:48.386Z,998.47
2022-12-23T07:42:48.379Z,998.46
2022-12-23T07:43:48.370Z,998.47
2022-12-23T07:44:48.339Z,998.49
2022-12-23T07:45:51.296Z,998.51
2022-12-23T07:46:48.392Z,998.51
2022-12-23T07:47:48.302Z,998.52
2022-12-23T07:48:48.351Z,998.51
2022-12-23T07:49:48.283Z,998.51
2022-12-23T07:50:48.306Z,998.50
2022-12-23T07:51:48.281Z,998.50
2022-12-23T07:52:48.271Z,998.50
2022-12-23T07:53:48.249Z,998.50
2022-12-23T07:54:48.251Z,998.50
2022-12-23T07:55:54.622Z,998.54
2022-12-23T07:56:48.249Z,998.54
2022-12-23T07:57:48.207Z,998.55
2022-12-23T07:58:48.210Z,998.56
2022-12-23T07:59:48.208Z,998.59
2022-12-23T08:00:48.195Z,998.60
2022-12-23T08:01:48.253Z,998.62
2022-12-23T08:02:48.283Z,998.60
2022-12-23T08:03:48.208Z,998.62
2022-12-23T08:04:48.199Z,998.65
2022-12-23T08:05:48.128Z,998.66
2022-12-23T08:06:48.120Z,998.66
2022-12-23T08:07:48.101Z,998.67
2022-12-23T08:08:48.125Z,998.68
2022-12-23T08:09:48.075Z,998.69
2022-12-23T08:10:48.713Z,998.72
2022-12-23T08:11:48.077Z,998.74
2022-12-23T08:12:48.052Z,998.75
2022-12-23T08:13:48.055Z,998.75
2022-12-23T08:14:48.040Z,998.75
2022-12-23T08:15:48.042Z,998.76
2022-12-23T08:16:48.089Z,998.77
2022-12-23T08:17:48.019Z,998.78
2022-12-23T08:18:48.010Z,998.79
2022-12-23T08:19:48.016Z,998.82
2022-12-23T08:20:47.975Z,998.84
2022-12-23T08:21:47.969Z,998.83
2022-12-23T08:22:47.970Z,998.84
2022-12-23T08:23:47.998Z,998.85
2022-12-23T08:24:47.964Z,998.85
2022-12-23T08:25:47.914Z,998.85
2022-12-23T08:26:47.962Z,998.86
2022-12-23T08:27:47.933Z,998.87
2022-12-23T08:28:47.910Z,998.86
2022-12-23T08:29:47.871Z,998.85
2022-12-23T08:30:47.931Z,998.86
2022-12-23T08:31:47.869Z,998.89
2022-12-23T08:32:47.848Z,998.90
2022-12-23T08:33:47.863Z,998.91
2022-12-23T08:34:47.842Z,998.92
2022-12-23T08:35:47.825Z,998.92
2022-12-23T08:36:47.814Z,998.91
2022-12-23T08:37:47.803Z,998.89
2022-12-23T08:38:47.822Z,998.89
2022-12-23T08:39:47.784Z,998.90
2022-12-23T08:40:47.768Z,998.92
2022-12-23T08:41:47.754Z,998.91
2022-12-23T08:42:47.756Z,998.94
2022-12-23T08:43:47.789Z,998.95
2022-12-23T08:44:47.727Z,998.96
2022-12-23T08:45:47.768Z,998.96
2022-12-23T08:46:47.792Z,998.93
2022-12-23T08:47:47.697Z,998.91
2022-12-23T08:48:49.773Z,998.88
2022-12-23T08:49:47.665Z,998.84
2022-12-23T08:50:47.662Z,998.84
2022-12-23T08:51:47.656Z,998.84
2022-12-23T08:52:47.655Z,998.86
2022-12-23T08:53:47.659Z,998.89
2022-12-23T08:54:47.615Z,998.92
2022-12-23T08:55:47.612Z,998.95
2022-12-23T08:56:47.626Z,998.97
2022-12-23T08:57:47.594Z,998.99
2022-12-23T08:58:47.583Z,999.00
2022-12-23T08:59:47.580Z,999.01
2022-12-23T09:00:47.559Z,999.01
2022-12-23T09:01:48.002Z,999.04
2022-12-23T09:02:47.766Z,999.08
2022-12-23T09:03:47.604Z,999.10
2022-12-23T09:04:47.528Z,999.10
2022-12-23T09:05:47.503Z,999.07
2022-12-23T09:06:47.536Z,999.07
2022-12-23T09:07:47.485Z,999.07
2022-12-23T09:08:47.489Z,999.09
2022-12-23T09:09:47.480Z,999.13
2022-12-23T09:10:47.461Z,999.17
2022-12-23T09:11:47.447Z,999.22
2022-12-23T09:12:47.463Z,999.26
2022-12-23T09:13:47.458Z,999.29
2022-12-23T09:14:47.421Z,999.29
2022-12-23T09:15:47.420Z,999.30
2022-12-23T09:16:47.389Z,999.29
2022-12-23T09:17:47.379Z,999.28
2022-12-23T09:18:47.412Z,999.30
2022-12-23T09:19:52.678Z,999.33
2022-12-23T09:20:47.373Z,999.35
2022-12-23T09:21:47.343Z,999.37
2022-12-23T09:22:47.343Z,999.38
2022-12-23T09:23:47.360Z,999.36
2022-12-23T09:24:47.325Z,999.34
2022-12-23T09:25:47.315Z,999.34
2022-12-23T09:26:47.330Z,999.34
2022-12-23T09:27:47.287Z,999.36
2022-12-23T09:28:47.292Z,999.38
2022-12-23T09:29:47.275Z,999.43
2022-12-23T09:30:47.271Z,999.45
2022-12-23T09:31:47.299Z,999.46
2022-12-23T09:32:47.235Z,999.49
2022-12-23T09:33:47.226Z,999.53
2022-12-23T09:34:47.212Z,999.56
2022-12-23T09:35:47.210Z,999.59
2022-12-23T09:36:53.390Z,999.59
2022-12-23T09:37:47.212Z,999.57
2022-12-23T09:38:47.207Z,999.55
2022-12-23T09:39:47.211Z,999.56
2022-12-23T09:40:47.149Z,999.60
2022-12-23T09:41:47.151Z,999.66
2022-12-23T09:42:47.164Z,999.71
2022-12-23T09:43:47.212Z,999.74
2022-12-23T09:44:47.121Z,999.78
2022-12-23T09:45:47.110Z,999.85
2022-12-23T09:46:47.126Z,999.89
2022-12-23T09:47:47.097Z,999.93
2022-12-23T09:48:47.090Z,999.96
2022-12-23T09:49:47.058Z,999.99
2022-12-23T09:50:47.038Z,999.99
2022-12-23T09:51:47.060Z,999.96
2022-12-23T09:52:47.028Z,999.92
2022-12-23T09:53:47.016Z,999.87
2022-12-23T09:54:47.038Z,999.86
2022-12-23T09:55:47.000Z,999.87
2022-12-23T09:56:46.994Z,999.91
2022-12-23T09:57:46.994Z,999.94
2022-12-23T09:58:46.984Z,999.96
2022-12-23T09:59:46.955Z,999.99
2022-12-23T10:00:46.932Z,1000.01
2022-12-23T10:01:47.089Z,1000.05
2022-12-23T10:02:47.169Z,1000.06
2022-12-23T10:03:47.263Z,1000.06
2022-12-23T10:04:46.897Z,1000.07
2022-12-23T10:05:46.894Z,1000.10
2022-12-23T10:06:46.899Z,1000.11
2022-12-23T10:07:46.867Z,1000.11
2022-12-23T10:08:46.861Z,1000.10
2022-12-23T10:09:46.866Z,1000.10
2022-12-23T10:10:46.851Z,1000.10
2022-12-23T10:11:46.825Z,1000.09
2022-12-23T10:12:46.824Z,1000.08
2022-12-23T10:13:46.808Z,1000.09
2022-12-23T10:14:46.831Z,1000.10
2022-12-23T10:15:46.820Z,1000.11
2022-12-23T10:16:46.907Z,1000.10
2022-12-23T10:17:46.778Z,1000.07
2022-12-23T10:18:46.755Z,1000.05
2022-12-23T10:19:46.774Z,1000.05
2022-12-23T10:20:46.764Z,1000.06
2022-12-23T10:21:47.817Z,1000.08
2022-12-23T10:22:46.709Z,1000.09
2022-12-23T10:23:46.720Z,1000.10
2022-12-23T10:24:46.781Z,1000.07
2022-12-23T10:25:46.679Z,1000.05
2022-12-23T10:26:46.667Z,1000.03
2022-12-23T10:27:46.663Z,1000.04
2022-12-23T10:28:46.659Z,1000.05
2022-12-23T10:29:46.663Z,1000.05
2022-12-23T10:31:46.704Z,1000.05
2022-12-23T10:32:46.693Z,1000.01
2022-12-23T10:33:46.632Z,1000.00
2022-12-23T10:34:46.607Z,1000.02
2022-12-23T10:35:46.597Z,1000.02
2022-12-23T10:36:46.718Z,1000.01
2022-12-23T10:37:46.605Z,1000.03
2022-12-23T10:38:46.541Z,1000.03
2022-12-23T10:39:46.535Z,1000.01
2022-12-23T10:40:46.554Z,1000.00
2022-12-23T10:41:46.540Z,1000.01
2022-12-23T10:42:46.505Z,1000.02
2022-12-23T10:43:46.513Z,1000.03
2022-12-23T10:44:46.487Z,1000.02
2022-12-23T10:45:46.489Z,1000.00
2022-12-23T10:46:46.534Z,999.96
2022-12-23T10:47:46.467Z,999.95
2022-12-23T10:48:46.442Z,999.95
2022-12-23T10:49:46.488Z,999.94
2022-12-23T10:50:46.446Z,999.94
2022-12-23T10:51:46.424Z,999.93
2022-12-23T10:52:46.400Z,999.93
2022-12-23T10:53:46.398Z,999.94
2022-12-23T10:54:46.414Z,999.93
2022-12-23T10:55:46.389Z,999.92
2022-12-23T10:56:46.364Z,999.93
2022-12-23T10:57:46.349Z,999.95
2022-12-23T10:58:46.342Z,999.98
2022-12-23T10:59:46.357Z,1000.01
2022-12-23T11:00:46.364Z,1000.02
2022-12-23T11:01:46.485Z,1000.06
2022-12-23T11:02:46.426Z,1000.06
2022-12-23T11:03:46.373Z,1000.06
2022-12-23T11:04:46.294Z,1000.05
2022-12-23T11:05:46.303Z,1000.04
2022-12-23T11:06:46.289Z,1000.04
2022-12-23T11:07:46.666Z,1000.05
2022-12-23T11:08:46.232Z,1000.05
2022-12-23T11:09:46.237Z,1000.06
2022-12-23T11:10:52.290Z,1000.06
2022-12-23T11:11:46.951Z,1000.05
2022-12-23T11:12:46.268Z,1000.06
2022-12-23T11:13:46.330Z,1000.07
2022-12-23T11:14:46.191Z,1000.07
2022-12-23T11:15:46.182Z,1000.09
2022-12-23T11:16:46.228Z,1000.10
2022-12-23T11:17:46.174Z,1000.12
2022-12-23T11:18:46.165Z,1000.12
2022-12-23T11:19:46.224Z,1000.10
2022-12-23T11:20:46.137Z,1000.09
2022-12-23T11:21:46.105Z,1000.08
2022-12-23T11:22:46.107Z,1000.07
2022-12-23T11:23:46.086Z,1000.06
2022-12-23T11:24:46.176Z,1000.05
2022-12-23T11:25:46.101Z,1000.05
2022-12-23T11:26:46.066Z,1000.05
2022-12-23T11:27:46.040Z,1000.06
2022-12-23T11:28:46.120Z,1000.07
2022-12-23T11:29:46.038Z,1000.07
2022-12-23T11:30:50.282Z,1000.07
2022-12-23T11:31:46.046Z,1000.07
2022-12-23T11:32:46.027Z,1000.07
2022-12-23T11:33:46.031Z,1000.07
2022-12-23T11:34:46.028Z,1000.07
2022-12-23T11:35:46.063Z,1000.08
2022-12-23T11:36:48.921Z,1000.10
2022-12-23T11:37:45.999Z,1000.11
2022-12-23T11:38:45.963Z,1000.12
2022-12-23T11:39:45.951Z,1000.14
2022-12-23T11:40:45.997Z,1000.16
2022-12-23T11:41:45.899Z,1000.19
2022-12-23T11:42:50.391Z,1000.20
2022-12-23T11:43:45.895Z,1000.21
2022-12-23T11:44:45.914Z,1000.21
2022-12-23T11:45:45.901Z,1000.22
2022-12-23T11:46:45.848Z,1000.22
2022-12-23T11:47:45.883Z,1000.23
2022-12-23T11:48:51.314Z,1000.25
2022-12-23T11:49:45.843Z,1000.25
2022-12-23T11:50:45.805Z,1000.27
2022-12-23T11:51:45.794Z,1000.31
2022-12-23T11:52:45.794Z,1000.36
2022-12-23T11:53:45.835Z,1000.38
2022-12-23T11:54:49.788Z,1000.39
2022-12-23T11:55:45.759Z,1000.39
2022-12-23T11:56:46.041Z,1000.40
2022-12-23T11:57:45.799Z,1000.38
2022-12-23T11:58:45.741Z,1000.38
2022-12-23T11:59:45.716Z,1000.38
2022-12-23T12:00:50.597Z,1000.36
2022-12-23T12:01:45.861Z,1000.33
2022-12-23T12:02:45.773Z,1000.30
2022-12-23T12:03:45.741Z,1000.32
2022-12-23T12:04:45.724Z,1000.35
2022-12-23T12:05:45.679Z,1000.38
2022-12-23T12:06:49.609Z,1000.43
2022-12-23T12:07:45.684Z,1000.46
2022-12-23T12:08:45.607Z,1000.51
2022-12-23T12:09:45.611Z,1000.52
2022-12-23T12:10:45.593Z,1000.55
2022-12-23T12:11:45.764Z,1000.60
2022-12-23T12:12:48.791Z,1000.59
2022-12-23T12:13:45.591Z,1000.60
2022-12-23T12:14:45.580Z,1000.60
2022-12-23T12:15:45.571Z,1000.62
2022-12-23T12:16:45.668Z,1000.63
2022-12-23T12:17:45.537Z,1000.65
2022-12-23T12:18:47.120Z,1000.65
2022-12-23T12:19:45.799Z,1000.66
2022-12-23T12:20:45.734Z,1000.64
2022-12-23T12:21:45.652Z,1000.65
2022-12-23T12:22:45.573Z,1000.66
2022-12-23T12:23:45.523Z,1000.66
2022-12-23T12:24:45.579Z,1000.65
2022-12-23T12:25:45.658Z,1000.64